sensor_id;sensor_type;location;lat;lon;timestamp;pressure;altitude;pressure_sealevel;temperature;humidity
37904;BME280;23738;50.422;18.758;2023-06-05T00:00:08;99011.49;;;10.04;52.57
37904;BME280;23738;50.422;18.758;2023-06-05T00:02:38;99006.42;;;9.99;52.55
37904;BME280;23738;50.422;18.758;2023-06-05T00:05:14;99002.05;;;9.96;52.55
37904;BME280;23738;50.422;18.758;2023-06-05T00:07:42;99000.64;;;9.92;52.62
37904;BME280;23738;50.422;18.758;2023-06-05T00:10:20;99002.47;;;9.88;53.11
37904;BME280;23738;50.422;18.758;2023-06-05T00:12:56;98996.15;;;9.81;53.06
37904;BME280;23738;50.422;18.758;2023-06-05T00:15:34;99004.36;;;9.80;52.85
37904;BME280;23738;50.422;18.758;2023-06-05T00:18:03;99009.65;;;9.78;52.95
37904;BME280;23738;50.422;18.758;2023-06-05T00:20:31;99005.75;;;9.76;53.13
37904;BME280;23738;50.422;18.758;2023-06-05T00:22:58;99003.13;;;9.74;53.07
37904;BME280;23738;50.422;18.758;2023-06-05T00:25:26;99004.40;;;9.71;53.42
37904;BME280;23738;50.422;18.758;2023-06-05T00:27:53;99002.74;;;9.67;53.55
37904;BME280;23738;50.422;18.758;2023-06-05T00:30:20;99001.92;;;9.65;53.11
37904;BME280;23738;50.422;18.758;2023-06-05T00:32:47;99000.86;;;9.65;53.11
37904;BME280;23738;50.422;18.758;2023-06-05T00:35:15;99000.11;;;9.67;53.38
37904;BME280;23738;50.422;18.758;2023-06-05T00:37:42;98997.63;;;9.69;53.52
37904;BME280;23738;50.422;18.758;2023-06-05T00:40:10;98998.88;;;9.72;53.69
37904;BME280;23738;50.422;18.758;2023-06-05T00:42:38;98995.98;;;9.72;53.64
37904;BME280;23738;50.422;18.758;2023-06-05T00:45:07;98996.64;;;9.74;53.73
37904;BME280;23738;50.422;18.758;2023-06-05T00:47:34;98996.44;;;9.74;53.79
37904;BME280;23738;50.422;18.758;2023-06-05T00:50:02;98999.23;;;9.73;53.80
37904;BME280;23738;50.422;18.758;2023-06-05T00:52:30;99001.11;;;9.70;53.78
37904;BME280;23738;50.422;18.758;2023-06-05T00:54:59;99002.46;;;9.69;53.81
37904;BME280;23738;50.422;18.758;2023-06-05T00:57:28;98999.29;;;9.65;54.08
37904;BME280;23738;50.422;18.758;2023-06-05T00:59:56;98998.23;;;9.60;54.00
37904;BME280;23738;50.422;18.758;2023-06-05T01:02:26;99000.26;;;9.57;54.08
37904;BME280;23738;50.422;18.758;2023-06-05T01:04:53;99000.02;;;9.52;54.10
37904;BME280;23738;50.422;18.758;2023-06-05T01:07:23;98998.58;;;9.48;54.20
37904;BME280;23738;50.422;18.758;2023-06-05T01:09:50;98992.76;;;9.43;54.25
37904;BME280;23738;50.422;18.758;2023-06-05T01:12:23;98993.57;;;9.40;54.55
37904;BME280;23738;50.422;18.758;2023-06-05T01:14:54;98990.64;;;9.36;54.45
37904;BME280;23738;50.422;18.758;2023-06-05T01:17:27;98988.39;;;9.33;54.37
37904;BME280;23738;50.422;18.758;2023-06-05T01:19:55;98988.64;;;9.31;54.67
37904;BME280;23738;50.422;18.758;2023-06-05T01:22:26;98993.07;;;9.29;54.62
37904;BME280;23738;50.422;18.758;2023-06-05T01:24:53;98989.02;;;9.26;54.78
37904;BME280;23738;50.422;18.758;2023-06-05T01:27:27;98991.73;;;9.24;54.89
37904;BME280;23738;50.422;18.758;2023-06-05T01:30:03;98992.09;;;9.20;54.80
37904;BME280;23738;50.422;18.758;2023-06-05T01:32:37;98986.20;;;9.18;54.86
37904;BME280;23738;50.422;18.758;2023-06-05T01:35:08;98981.09;;;9.11;54.81
37904;BME280;23738;50.422;18.758;2023-06-05T01:37:37;98989.09;;;9.15;55.04
37904;BME280;23738;50.422;18.758;2023-06-05T01:40:11;98988.05;;;9.13;54.92
37904;BME280;23738;50.422;18.758;2023-06-05T01:42:41;98991.01;;;9.13;55.13
37904;BME280;23738;50.422;18.758;2023-06-05T01:45:11;98989.25;;;9.16;55.23
37904;BME280;23738;50.422;18.758;2023-06-05T01:47:40;98985.81;;;9.18;55.36
37904;BME280;23738;50.422;18.758;2023-06-05T01:50:09;98988.90;;;9.21;55.42
37904;BME280;23738;50.422;18.758;2023-06-05T01:52:39;98987.48;;;9.21;55.52
37904;BME280;23738;50.422;18.758;2023-06-05T01:55:08;98985.51;;;9.19;55.62
37904;BME280;23738;50.422;18.758;2023-06-05T01:57:42;98984.19;;;9.20;55.67
37904;BME280;23738;50.422;18.758;2023-06-05T02:00:11;98986.70;;;9.18;55.76
37904;BME280;23738;50.422;18.758;2023-06-05T02:02:40;98987.10;;;9.15;55.74
37904;BME280;23738;50.422;18.758;2023-06-05T02:05:09;98987.02;;;9.13;55.91
37904;BME280;23738;50.422;18.758;2023-06-05T02:07:37;98987.19;;;9.10;56.07
37904;BME280;23738;50.422;18.758;2023-06-05T02:10:07;98985.61;;;9.05;56.05
37904;BME280;23738;50.422;18.758;2023-06-05T02:12:35;98982.38;;;9.01;56.29
37904;BME280;23738;50.422;18.758;2023-06-05T02:15:06;98984.16;;;8.99;56.35
37904;BME280;23738;50.422;18.758;2023-06-05T02:17:34;98980.09;;;8.97;56.42
37904;BME280;23738;50.422;18.758;2023-06-05T02:20:02;98977.71;;;8.93;56.55
37904;BME280;23738;50.422;18.758;2023-06-05T02:22:30;98976.46;;;8.89;56.40
37904;BME280;23738;50.422;18.758;2023-06-05T02:24:58;98976.95;;;8.87;56.54
37904;BME280;23738;50.422;18.758;2023-06-05T02:27:26;98977.11;;;8.83;56.32
37904;BME280;23738;50.422;18.758;2023-06-05T02:29:53;98975.23;;;8.85;56.76
37904;BME280;23738;50.422;18.758;2023-06-05T02:32:21;98974.27;;;8.87;56.61
37904;BME280;23738;50.422;18.758;2023-06-05T02:34:53;98972.71;;;8.88;56.83
37904;BME280;23738;50.422;18.758;2023-06-05T02:37:23;98973.14;;;8.89;57.16
37904;BME280;23738;50.422;18.758;2023-06-05T02:39:51;98971.94;;;8.90;57.28
37904;BME280;23738;50.422;18.758;2023-06-05T02:42:19;98973.71;;;8.92;57.45
37904;BME280;23738;50.422;18.758;2023-06-05T02:44:49;98974.80;;;8.93;57.41
37904;BME280;23738;50.422;18.758;2023-06-05T02:47:16;98971.16;;;8.91;57.46
37904;BME280;23738;50.422;18.758;2023-06-05T02:49:43;98968.13;;;8.90;57.57
37904;BME280;23738;50.422;18.758;2023-06-05T02:52:11;98972.23;;;8.91;57.63
37904;BME280;23738;50.422;18.758;2023-06-05T02:54:39;98967.93;;;8.90;57.69
37904;BME280;23738;50.422;18.758;2023-06-05T02:57:06;98971.59;;;8.90;57.79
37904;BME280;23738;50.422;18.758;2023-06-05T02:59:34;98971.74;;;8.91;57.85
37904;BME280;23738;50.422;18.758;2023-06-05T03:02:06;98971.93;;;8.87;57.70
37904;BME280;23738;50.422;18.758;2023-06-05T03:04:33;98979.11;;;8.87;57.82
37904;BME280;23738;50.422;18.758;2023-06-05T03:07:01;98979.25;;;8.91;57.72
37904;BME280;23738;50.422;18.758;2023-06-05T03:09:30;98977.80;;;8.94;57.86
37904;BME280;23738;50.422;18.758;2023-06-05T03:11:58;98981.63;;;8.99;58.28
37904;BME280;23738;50.422;18.758;2023-06-05T03:14:25;98980.67;;;9.04;58.26
37904;BME280;23738;50.422;18.758;2023-06-05T03:16:54;98979.16;;;9.08;58.45
37904;BME280;23738;50.422;18.758;2023-06-05T03:19:21;98980.05;;;9.11;58.60
37904;BME280;23738;50.422;18.758;2023-06-05T03:21:49;98981.72;;;9.13;58.78
37904;BME280;23738;50.422;18.758;2023-06-05T03:24:16;98983.16;;;9.14;58.62
37904;BME280;23738;50.422;18.758;2023-06-05T03:26:44;98982.27;;;9.16;58.61
37904;BME280;23738;50.422;18.758;2023-06-05T03:29:12;98982.52;;;9.17;58.88
37904;BME280;23738;50.422;18.758;2023-06-05T03:31:39;98982.15;;;9.17;58.94
37904;BME280;23738;50.422;18.758;2023-06-05T03:34:09;98982.73;;;9.18;58.99
37904;BME280;23738;50.422;18.758;2023-06-05T03:36:37;98981.58;;;9.17;58.89
37904;BME280;23738;50.422;18.758;2023-06-05T03:39:06;98987.14;;;9.21;59.00
37904;BME280;23738;50.422;18.758;2023-06-05T03:41:34;98987.19;;;9.27;59.13
37904;BME280;23738;50.422;18.758;2023-06-05T03:44:01;98984.80;;;9.35;59.36
37904;BME280;23738;50.422;18.758;2023-06-05T03:46:30;98988.48;;;9.42;59.38
37904;BME280;23738;50.422;18.758;2023-06-05T03:48:57;98988.66;;;9.48;59.46
37904;BME280;23738;50.422;18.758;2023-06-05T03:51:26;98990.13;;;9.52;59.71
37904;BME280;23738;50.422;18.758;2023-06-05T03:53:56;98983.99;;;9.55;59.65
37904;BME280;23738;50.422;18.758;2023-06-05T03:56:25;98985.13;;;9.60;59.89
37904;BME280;23738;50.422;18.758;2023-06-05T03:58:55;98981.67;;;9.66;60.05
37904;BME280;23738;50.422;18.758;2023-06-05T04:01:23;98984.36;;;9.69;60.03
37904;BME280;23738;50.422;18.758;2023-06-05T04:03:51;98986.69;;;9.76;60.22
37904;BME280;23738;50.422;18.758;2023-06-05T04:06:19;98986.23;;;9.80;59.96
37904;BME280;23738;50.422;18.758;2023-06-05T04:08:46;98984.26;;;9.86;60.26
37904;BME280;23738;50.422;18.758;2023-06-05T04:11:14;98983.27;;;9.97;60.33
37904;BME280;23738;50.422;18.758;2023-06-05T04:13:42;98985.98;;;10.11;60.62
37904;BME280;23738;50.422;18.758;2023-06-05T04:16:09;98983.10;;;10.22;60.66
37904;BME280;23738;50.422;18.758;2023-06-05T04:18:36;98980.85;;;10.32;60.87
37904;BME280;23738;50.422;18.758;2023-06-05T04:21:04;98983.96;;;10.42;60.91
37904;BME280;23738;50.422;18.758;2023-06-05T04:23:31;98979.58;;;10.54;61.08
37904;BME280;23738;50.422;18.758;2023-06-05T04:25:58;98977.33;;;10.64;61.12
37904;BME280;23738;50.422;18.758;2023-06-05T04:28:25;98977.17;;;10.76;61.11
37904;BME280;23738;50.422;18.758;2023-06-05T04:30:53;98972.42;;;10.89;61.17
37904;BME280;23738;50.422;18.758;2023-06-05T04:33:22;98973.73;;;11.03;61.28
37904;BME280;23738;50.422;18.758;2023-06-05T04:35:51;98976.24;;;11.21;61.33
37904;BME280;23738;50.422;18.758;2023-06-05T04:38:19;98974.08;;;11.44;61.38
37904;BME280;23738;50.422;18.758;2023-06-05T04:40:48;98975.44;;;11.66;61.68
37904;BME280;23738;50.422;18.758;2023-06-05T04:43:17;98976.48;;;11.88;61.66
37904;BME280;23738;50.422;18.758;2023-06-05T04:45:45;98976.08;;;12.10;61.59
37904;BME280;23738;50.422;18.758;2023-06-05T04:48:12;98972.77;;;12.30;61.70
37904;BME280;23738;50.422;18.758;2023-06-05T04:50:40;98977.21;;;12.54;61.87
37904;BME280;23738;50.422;18.758;2023-06-05T04:53:08;98976.61;;;12.75;61.53
37904;BME280;23738;50.422;18.758;2023-06-05T04:55:35;98976.09;;;12.97;61.40
37904;BME280;23738;50.422;18.758;2023-06-05T04:58:03;98979.61;;;13.20;61.42
37904;BME280;23738;50.422;18.758;2023-06-05T05:00:31;98979.02;;;13.44;61.38
37904;BME280;23738;50.422;18.758;2023-06-05T05:02:58;98976.73;;;13.67;61.27
37904;BME280;23738;50.422;18.758;2023-06-05T05:05:26;98977.39;;;13.90;61.17
37904;BME280;23738;50.422;18.758;2023-06-05T05:07:53;98975.35;;;14.11;60.97
37904;BME280;23738;50.422;18.758;2023-06-05T05:10:20;98970.41;;;14.36;60.89
37904;BME280;23738;50.422;18.758;2023-06-05T05:12:48;98968.59;;;14.63;60.82
37904;BME280;23738;50.422;18.758;2023-06-05T05:15:15;98968.61;;;14.88;60.73
37904;BME280;23738;50.422;18.758;2023-06-05T05:17:43;98972.49;;;15.10;60.46
37904;BME280;23738;50.422;18.758;2023-06-05T05:20:10;98974.53;;;15.34;60.42
37904;BME280;23738;50.422;18.758;2023-06-05T05:22:39;98973.85;;;15.60;60.17
37904;BME280;23738;50.422;18.758;2023-06-05T05:25:09;98975.34;;;15.89;60.05
37904;BME280;23738;50.422;18.758;2023-06-05T05:27:36;98972.27;;;16.22;59.43
37904;BME280;23738;50.422;18.758;2023-06-05T05:30:04;98968.39;;;16.52;59.40
37904;BME280;23738;50.422;18.758;2023-06-05T05:32:31;98964.05;;;16.79;58.79
37904;BME280;23738;50.422;18.758;2023-06-05T05:34:58;98964.61;;;17.06;58.08
37904;BME280;23738;50.422;18.758;2023-06-05T05:37:25;98963.37;;;17.31;58.07
37904;BME280;23738;50.422;18.758;2023-06-05T05:39:53;98961.08;;;17.57;57.62
37904;BME280;23738;50.422;18.758;2023-06-05T05:42:21;98961.50;;;17.83;57.22
37904;BME280;23738;50.422;18.758;2023-06-05T05:44:48;98959.55;;;18.08;56.57
37904;BME280;23738;50.422;18.758;2023-06-05T05:47:15;98955.99;;;18.32;56.30
37904;BME280;23738;50.422;18.758;2023-06-05T05:49:43;98955.77;;;18.54;55.60
37904;BME280;23738;50.422;18.758;2023-06-05T05:52:10;98957.77;;;18.78;55.21
37904;BME280;23738;50.422;18.758;2023-06-05T05:54:37;98962.95;;;19.03;54.88
37904;BME280;23738;50.422;18.758;2023-06-05T05:57:05;98965.03;;;19.23;54.34
37904;BME280;23738;50.422;18.758;2023-06-05T05:59:34;98969.21;;;19.44;53.78
37904;BME280;23738;50.422;18.758;2023-06-05T06:02:02;98970.38;;;19.60;53.40
37904;BME280;23738;50.422;18.758;2023-06-05T06:04:35;98970.25;;;19.83;53.53
37904;BME280;23738;50.422;18.758;2023-06-05T06:07:03;98974.29;;;20.05;52.62
37904;BME280;23738;50.422;18.758;2023-06-05T06:09:32;98974.83;;;20.24;52.43
37904;BME280;23738;50.422;18.758;2023-06-05T06:12:08;98976.08;;;20.48;52.30
37904;BME280;23738;50.422;18.758;2023-06-05T06:14:36;98975.64;;;20.73;52.14
37904;BME280;23738;50.422;18.758;2023-06-05T06:17:04;98978.03;;;20.95;50.88
37904;BME280;23738;50.422;18.758;2023-06-05T06:19:36;98980.52;;;21.09;50.70
37904;BME280;23738;50.422;18.758;2023-06-05T06:22:05;98979.66;;;21.27;50.23
37904;BME280;23738;50.422;18.758;2023-06-05T06:24:38;98982.95;;;21.45;49.82
37904;BME280;23738;50.422;18.758;2023-06-05T06:27:06;98982.52;;;21.59;49.70
37904;BME280;23738;50.422;18.758;2023-06-05T06:29:36;98979.92;;;21.65;48.48
37904;BME280;23738;50.422;18.758;2023-06-05T06:32:05;98984.06;;;21.77;48.28
37904;BME280;23738;50.422;18.758;2023-06-05T06:34:32;98982.94;;;21.96;48.45
37904;BME280;23738;50.422;18.758;2023-06-05T06:37:00;98980.02;;;22.16;48.30
37904;BME280;23738;50.422;18.758;2023-06-05T06:39:28;98981.48;;;22.35;47.86
37904;BME280;23738;50.422;18.758;2023-06-05T06:41:55;98983.84;;;22.53;47.90
37904;BME280;23738;50.422;18.758;2023-06-05T06:44:24;98978.67;;;22.73;46.62
37904;BME280;23738;50.422;18.758;2023-06-05T06:46:51;98981.93;;;22.86;46.51
37904;BME280;23738;50.422;18.758;2023-06-05T06:49:18;98981.67;;;23.06;46.50
37904;BME280;23738;50.422;18.758;2023-06-05T06:51:45;98980.75;;;23.22;45.77
37904;BME280;23738;50.422;18.758;2023-06-05T06:54:13;98982.80;;;23.35;45.39
37904;BME280;23738;50.422;18.758;2023-06-05T06:56:40;98985.70;;;23.52;45.60
37904;BME280;23738;50.422;18.758;2023-06-05T06:59:12;98982.59;;;23.72;44.87
37904;BME280;23738;50.422;18.758;2023-06-05T07:01:43;98981.48;;;23.84;44.08
37904;BME280;23738;50.422;18.758;2023-06-05T07:04:12;98977.77;;;23.92;44.10
37904;BME280;23738;50.422;18.758;2023-06-05T07:06:43;98981.55;;;24.06;44.01
37904;BME280;23738;50.422;18.758;2023-06-05T07:09:11;98977.63;;;24.16;43.45
37904;BME280;23738;50.422;18.758;2023-06-05T07:11:38;98979.73;;;24.21;42.67
37904;BME280;23738;50.422;18.758;2023-06-05T07:14:05;98976.69;;;24.28;42.32
37904;BME280;23738;50.422;18.758;2023-06-05T07:16:34;98973.98;;;24.41;42.42
37904;BME280;23738;50.422;18.758;2023-06-05T07:19:01;98971.40;;;24.55;42.32
37904;BME280;23738;50.422;18.758;2023-06-05T07:21:29;98978.52;;;24.68;42.33
37904;BME280;23738;50.422;18.758;2023-06-05T07:23:57;98976.39;;;24.77;41.14
37904;BME280;23738;50.422;18.758;2023-06-05T07:26:24;98972.23;;;24.86;41.56
37904;BME280;23738;50.422;18.758;2023-06-05T07:28:51;98972.35;;;25.00;41.12
37904;BME280;23738;50.422;18.758;2023-06-05T07:31:19;98979.23;;;25.19;40.62
37904;BME280;23738;50.422;18.758;2023-06-05T07:33:48;98979.86;;;25.27;39.46
37904;BME280;23738;50.422;18.758;2023-06-05T07:36:15;98979.40;;;25.36;39.86
37904;BME280;23738;50.422;18.758;2023-06-05T07:38:43;98975.98;;;25.44;39.33
37904;BME280;23738;50.422;18.758;2023-06-05T07:41:11;98977.84;;;25.52;38.85
37904;BME280;23738;50.422;18.758;2023-06-05T07:43:38;98975.23;;;25.53;38.67
37904;BME280;23738;50.422;18.758;2023-06-05T07:46:06;98978.50;;;25.64;39.13
37904;BME280;23738;50.422;18.758;2023-06-05T07:48:35;98970.27;;;25.74;39.05
37904;BME280;23738;50.422;18.758;2023-06-05T07:51:03;98975.30;;;25.84;38.33
37904;BME280;23738;50.422;18.758;2023-06-05T07:53:30;98972.94;;;25.91;38.21
37904;BME280;23738;50.422;18.758;2023-06-05T07:55:57;98971.29;;;26.02;37.83
37904;BME280;23738;50.422;18.758;2023-06-05T07:58:25;98972.21;;;26.08;37.70
37904;BME280;23738;50.422;18.758;2023-06-05T08:00:54;98971.87;;;26.17;37.17
37904;BME280;23738;50.422;18.758;2023-06-05T08:03:23;98974.14;;;26.27;37.08
37904;BME280;23738;50.422;18.758;2023-06-05T08:05:52;98969.42;;;26.40;37.15
37904;BME280;23738;50.422;18.758;2023-06-05T08:08:19;98968.23;;;26.52;37.19
37904;BME280;23738;50.422;18.758;2023-06-05T08:10:46;98964.40;;;26.69;36.43
37904;BME280;23738;50.422;18.758;2023-06-05T08:13:14;98964.35;;;26.76;36.37
37904;BME280;23738;50.422;18.758;2023-06-05T08:15:42;98959.48;;;26.80;35.27
37904;BME280;23738;50.422;18.758;2023-06-05T08:18:09;98956.45;;;26.75;35.54
37904;BME280;23738;50.422;18.758;2023-06-05T08:20:36;98950.83;;;26.85;35.53
37904;BME280;23738;50.422;18.758;2023-06-05T08:23:04;98954.17;;;27.00;35.20
37904;BME280;23738;50.422;18.758;2023-06-05T08:25:32;98953.21;;;27.12;34.90
37904;BME280;23738;50.422;18.758;2023-06-05T08:27:59;98955.80;;;27.16;34.40
37904;BME280;23738;50.422;18.758;2023-06-05T08:30:27;98956.28;;;27.23;34.49
37904;BME280;23738;50.422;18.758;2023-06-05T08:32:54;98951.96;;;27.34;35.09
37904;BME280;23738;50.422;18.758;2023-06-05T08:35:22;98945.24;;;27.53;35.25
37904;BME280;23738;50.422;18.758;2023-06-05T08:37:49;98948.08;;;27.75;34.15
37904;BME280;23738;50.422;18.758;2023-06-05T08:40:17;98943.13;;;27.76;34.17
37904;BME280;23738;50.422;18.758;2023-06-05T08:42:45;98950.36;;;27.91;34.48
37904;BME280;23738;50.422;18.758;2023-06-05T08:45:13;98949.52;;;28.03;34.27
37904;BME280;23738;50.422;18.758;2023-06-05T08:47:40;98951.42;;;28.19;34.00
37904;BME280;23738;50.422;18.758;2023-06-05T08:50:09;98949.88;;;28.33;33.53
37904;BME280;23738;50.422;18.758;2023-06-05T08:52:38;98947.38;;;28.43;33.93
37904;BME280;23738;50.422;18.758;2023-06-05T08:55:10;98948.52;;;28.62;33.97
37904;BME280;23738;50.422;18.758;2023-06-05T08:57:39;98949.40;;;28.71;32.98
37904;BME280;23738;50.422;18.758;2023-06-05T09:00:10;98948.38;;;28.80;33.56
37904;BME280;23738;50.422;18.758;2023-06-05T09:02:41;98952.73;;;28.83;31.36
37904;BME280;23738;50.422;18.758;2023-06-05T09:05:10;98950.60;;;28.68;31.65
37904;BME280;23738;50.422;18.758;2023-06-05T09:07:38;98945.77;;;28.61;30.75
37904;BME280;23738;50.422;18.758;2023-06-05T09:10:17;98948.34;;;28.48;31.29
37904;BME280;23738;50.422;18.758;2023-06-05T09:12:56;98946.20;;;28.50;31.92
37904;BME280;23738;50.422;18.758;2023-06-05T09:15:25;98941.05;;;28.70;31.80
37904;BME280;23738;50.422;18.758;2023-06-05T09:18:13;98941.70;;;28.89;32.35
37904;BME280;23738;50.422;18.758;2023-06-05T09:20:43;98946.20;;;29.18;32.52
37904;BME280;23738;50.422;18.758;2023-06-05T09:23:25;98944.90;;;29.32;31.18
37904;BME280;23738;50.422;18.758;2023-06-05T09:25:54;98942.79;;;29.19;31.05
37904;BME280;23738;50.422;18.758;2023-06-05T09:28:22;98938.59;;;29.13;31.32
37904;BME280;23738;50.422;18.758;2023-06-05T09:30:57;98935.48;;;29.13;31.33
37904;BME280;23738;50.422;18.758;2023-06-05T09:33:26;98937.36;;;29.30;31.54
37904;BME280;23738;50.422;18.758;2023-06-05T09:36:08;98935.55;;;29.45;31.06
37904;BME280;23738;50.422;18.758;2023-06-05T09:38:36;98929.98;;;29.42;30.40
37904;BME280;23738;50.422;18.758;2023-06-05T09:41:09;98929.98;;;29.30;30.78
37904;BME280;23738;50.422;18.758;2023-06-05T09:43:37;98927.40;;;29.25;30.65
37904;BME280;23738;50.422;18.758;2023-06-05T09:46:09;98926.64;;;29.04;29.99
37904;BME280;23738;50.422;18.758;2023-06-05T09:48:36;98923.77;;;28.91;30.09
37904;BME280;23738;50.422;18.758;2023-06-05T09:51:11;98919.61;;;28.91;30.14
37904;BME280;23738;50.422;18.758;2023-06-05T09:53:42;98921.38;;;29.03;30.66
37904;BME280;23738;50.422;18.758;2023-06-05T09:56:12;98922.48;;;29.25;30.91
37904;BME280;23738;50.422;18.758;2023-06-05T09:58:44;98924.01;;;29.41;30.64
37904;BME280;23738;50.422;18.758;2023-06-05T10:01:15;98915.55;;;29.56;30.70
37904;BME280;23738;50.422;18.758;2023-06-05T10:03:47;98914.28;;;29.64;29.67
37904;BME280;23738;50.422;18.758;2023-06-05T10:06:16;98909.74;;;29.49;29.40
37904;BME280;23738;50.422;18.758;2023-06-05T10:08:50;98914.34;;;29.41;29.26
37904;BME280;23738;50.422;18.758;2023-06-05T10:11:20;98914.34;;;29.25;29.46
37904;BME280;23738;50.422;18.758;2023-06-05T10:13:48;98916.60;;;29.18;29.20
37904;BME280;23738;50.422;18.758;2023-06-05T10:16:17;98912.66;;;29.23;29.49
37904;BME280;23738;50.422;18.758;2023-06-05T10:18:47;98907.98;;;29.47;29.58
37904;BME280;23738;50.422;18.758;2023-06-05T10:21:15;98906.67;;;29.58;29.03
37904;BME280;23738;50.422;18.758;2023-06-05T10:23:45;98905.66;;;29.57;29.16
37904;BME280;23738;50.422;18.758;2023-06-05T10:26:22;98904.83;;;29.63;29.19
37904;BME280;23738;50.422;18.758;2023-06-05T10:29:02;98900.42;;;29.82;29.51
37904;BME280;23738;50.422;18.758;2023-06-05T10:31:45;98898.38;;;30.01;29.68
37904;BME280;23738;50.422;18.758;2023-06-05T10:34:31;98900.36;;;30.06;29.08
37904;BME280;23738;50.422;18.758;2023-06-05T10:37:36;98900.70;;;30.07;29.32
37904;BME280;23738;50.422;18.758;2023-06-05T10:40:07;98899.40;;;30.16;29.03
37904;BME280;23738;50.422;18.758;2023-06-05T10:42:36;98901.59;;;30.18;28.49
37904;BME280;23738;50.422;18.758;2023-06-05T10:45:06;98894.13;;;30.16;28.73
37904;BME280;23738;50.422;18.758;2023-06-05T10:47:50;98899.48;;;30.21;28.87
37904;BME280;23738;50.422;18.758;2023-06-05T10:50:27;98898.09;;;30.14;28.31
37904;BME280;23738;50.422;18.758;2023-06-05T10:52:55;98893.83;;;30.10;28.47
37904;BME280;23738;50.422;18.758;2023-06-05T10:55:25;98896.51;;;30.14;28.74
37904;BME280;23738;50.422;18.758;2023-06-05T10:58:06;98901.33;;;30.19;27.45
37904;BME280;23738;50.422;18.758;2023-06-05T11:00:38;98899.11;;;30.10;28.07
37904;BME280;23738;50.422;18.758;2023-06-05T11:03:05;98894.73;;;30.01;27.90
37904;BME280;23738;50.422;18.758;2023-06-05T11:05:33;98898.45;;;29.93;27.54
37904;BME280;23738;50.422;18.758;2023-06-05T11:08:12;98893.69;;;29.82;27.34
37904;BME280;23738;50.422;18.758;2023-06-05T11:11:04;98888.83;;;29.82;27.61
37904;BME280;23738;50.422;18.758;2023-06-05T11:13:54;98888.51;;;29.96;27.80
37904;BME280;23738;50.422;18.758;2023-06-05T11:16:29;98884.55;;;30.17;28.23
37904;BME280;23738;50.422;18.758;2023-06-05T11:22:08;98887.07;;;30.17;27.39
37904;BME280;23738;50.422;18.758;2023-06-05T11:24:37;98879.33;;;30.04;27.80
37904;BME280;23738;50.422;18.758;2023-06-05T11:27:05;98885.67;;;30.09;27.63
37904;BME280;23738;50.422;18.758;2023-06-05T11:29:35;98885.65;;;30.10;27.42
37904;BME280;23738;50.422;18.758;2023-06-05T11:32:12;98877.38;;;30.09;27.40
37904;BME280;23738;50.422;18.758;2023-06-05T11:34:39;98879.63;;;30.16;27.36
37904;BME280;23738;50.422;18.758;2023-06-05T11:37:17;98877.04;;;30.17;27.16
37904;BME280;23738;50.422;18.758;2023-06-05T11:39:45;98876.14;;;30.23;27.86
37904;BME280;23738;50.422;18.758;2023-06-05T11:42:14;98877.48;;;30.27;27.60
37904;BME280;23738;50.422;18.758;2023-06-05T11:44:48;98879.80;;;30.21;27.39
37904;BME280;23738;50.422;18.758;2023-06-05T11:47:23;98876.63;;;30.27;27.45
37904;BME280;23738;50.422;18.758;2023-06-05T11:49:50;98870.61;;;30.27;27.22
37904;BME280;23738;50.422;18.758;2023-06-05T11:52:19;98865.84;;;30.29;27.96
37904;BME280;23738;50.422;18.758;2023-06-05T11:54:47;98865.11;;;30.39;27.44
37904;BME280;23738;50.422;18.758;2023-06-05T11:57:40;98865.98;;;30.24;27.40
37904;BME280;23738;50.422;18.758;2023-06-05T12:00:12;98861.70;;;29.94;27.49
37904;BME280;23738;50.422;18.758;2023-06-05T12:02:42;98866.26;;;29.69;27.84
37904;BME280;23738;50.422;18.758;2023-06-05T12:05:10;98864.79;;;29.82;28.17
37904;BME280;23738;50.422;18.758;2023-06-05T12:07:37;98855.60;;;30.01;27.93
37904;BME280;23738;50.422;18.758;2023-06-05T12:10:08;98861.37;;;29.94;27.77
37904;BME280;23738;50.422;18.758;2023-06-05T12:12:35;98863.09;;;29.82;27.77
37904;BME280;23738;50.422;18.758;2023-06-05T12:15:16;98859.91;;;29.68;27.52
37904;BME280;23738;50.422;18.758;2023-06-05T12:17:49;98862.27;;;29.48;27.48
37904;BME280;23738;50.422;18.758;2023-06-05T12:20:17;98859.27;;;29.21;27.70
37904;BME280;23738;50.422;18.758;2023-06-05T12:22:45;98855.48;;;28.97;27.93
37904;BME280;23738;50.422;18.758;2023-06-05T12:25:16;98854.76;;;28.89;28.48
37904;BME280;23738;50.422;18.758;2023-06-05T12:27:43;98852.20;;;28.82;28.16
37904;BME280;23738;50.422;18.758;2023-06-05T12:30:13;98849.15;;;28.73;28.78
37904;BME280;23738;50.422;18.758;2023-06-05T12:32:41;98850.50;;;28.77;28.83
37904;BME280;23738;50.422;18.758;2023-06-05T12:35:19;98847.41;;;28.85;28.78
37904;BME280;23738;50.422;18.758;2023-06-05T12:37:47;98845.65;;;28.98;28.54
37904;BME280;23738;50.422;18.758;2023-06-05T12:40:15;98844.66;;;29.09;28.51
37904;BME280;23738;50.422;18.758;2023-06-05T12:42:48;98839.23;;;29.32;28.76
37904;BME280;23738;50.422;18.758;2023-06-05T12:45:15;98836.23;;;29.56;28.24
37904;BME280;23738;50.422;18.758;2023-06-05T12:47:43;98835.41;;;29.67;28.43
37904;BME280;23738;50.422;18.758;2023-06-05T12:50:12;98837.23;;;29.82;28.66
37904;BME280;23738;50.422;18.758;2023-06-05T12:52:39;98832.24;;;29.98;28.90
37904;BME280;23738;50.422;18.758;2023-06-05T12:55:09;98830.53;;;30.09;28.76
37904;BME280;23738;50.422;18.758;2023-06-05T12:57:37;98827.29;;;30.03;28.37
37904;BME280;23738;50.422;18.758;2023-06-05T13:00:06;98826.08;;;29.81;28.05
37904;BME280;23738;50.422;18.758;2023-06-05T13:02:40;98823.86;;;29.57;28.17
37904;BME280;23738;50.422;18.758;2023-06-05T13:05:09;98823.05;;;29.53;28.67
37904;BME280;23738;50.422;18.758;2023-06-05T13:07:39;98822.63;;;29.65;28.70